createdAt,value
2022-11-09T00:01:32.953Z,1.60
2022-11-09T00:04:02.413Z,2.20
2022-11-09T00:06:30.892Z,2.70
2022-11-09T00:09:06.812Z,2.33
2022-11-09T00:11:35.596Z,2.23
2022-11-09T00:14:03.525Z,1.93
2022-11-09T00:16:31.621Z,2.83
2022-11-09T00:19:00.044Z,2.07
2022-11-09T00:21:27.985Z,2.07
2022-11-09T00:23:55.987Z,2.93
2022-11-09T00:26:26.323Z,2.20
2022-11-09T00:28:54.334Z,3.87
2022-11-09T00:31:24.575Z,2.40
2022-11-09T00:33:53.925Z,2.50
2022-11-09T00:36:23.091Z,3.07
2022-11-09T00:38:53.073Z,1.73
2022-11-09T00:41:21.581Z,1.50
2022-11-09T00:43:51.619Z,2.40
2022-11-09T00:46:20.668Z,3.00
2022-11-09T00:48:48.734Z,2.97
2022-11-09T00:51:16.710Z,3.00
2022-11-09T00:53:47.178Z,3.23
2022-11-09T00:56:15.160Z,3.20
2022-11-09T00:58:43.093Z,4.37
2022-11-09T01:01:14.922Z,4.33
2022-11-09T01:03:43.197Z,2.67
2022-11-09T01:06:15.998Z,2.40
2022-11-09T01:08:43.941Z,4.37
2022-11-09T01:11:12.654Z,2.87
2022-11-09T01:13:41.397Z,2.63
2022-11-09T01:16:11.999Z,2.33
2022-11-09T01:18:41.725Z,1.70
2022-11-09T01:21:12.490Z,2.73
2022-11-09T01:23:42.849Z,2.17
2022-11-09T01:26:12.964Z,1.53
2022-11-09T01:28:41.228Z,3.03
2022-11-09T01:31:11.911Z,2.27
2022-11-09T01:33:41.493Z,2.50
2022-11-09T01:36:12.270Z,3.07
2022-11-09T01:38:40.857Z,1.40
2022-11-09T01:41:10.536Z,1.60
2022-11-09T01:43:38.525Z,1.53
2022-11-09T01:46:14.748Z,2.63
2022-11-09T01:48:49.672Z,2.83
2022-11-09T01:51:25.203Z,1.03
2022-11-09T01:53:57.327Z,1.47
2022-11-09T01:56:25.705Z,1.33
2022-11-09T01:58:58.689Z,2.30
2022-11-09T02:01:26.868Z,2.43
2022-11-09T02:04:01.062Z,2.13
2022-11-09T02:09:08.267Z,2.03
2022-11-09T02:11:37.871Z,1.50
2022-11-09T02:14:08.063Z,1.63
2022-11-09T02:16:36.478Z,1.30
2022-11-09T02:19:05.807Z,3.67
2022-11-09T02:21:35.467Z,1.57
2022-11-09T02:24:03.466Z,3.13
2022-11-09T02:26:35.716Z,2.37
2022-11-09T02:29:06.710Z,1.47
2022-11-09T02:31:38.766Z,2.67
2022-11-09T02:34:09.902Z,1.33
2022-11-09T02:36:39.231Z,2.60
2022-11-09T02:39:07.991Z,1.23
2022-11-09T02:41:40.058Z,1.80
2022-11-09T02:44:07.972Z,1.13
2022-11-09T02:46:37.781Z,2.37
2022-11-09T02:49:06.179Z,2.47
2022-11-09T02:51:34.187Z,1.33
2022-11-09T02:54:03.570Z,0.97
2022-11-09T02:56:31.495Z,0.60
2022-11-09T02:58:59.412Z,1.43
2022-11-09T03:01:27.492Z,0.50
2022-11-09T03:03:55.511Z,1.40
2022-11-09T03:06:34.463Z,2.73
2022-11-09T03:09:05.765Z,2.87
2022-11-09T03:11:34.154Z,2.17
2022-11-09T03:14:02.131Z,1.37
2022-11-09T03:16:30.474Z,2.00
2022-11-09T03:18:58.937Z,1.30
2022-11-09T03:21:26.865Z,1.10
2022-11-09T03:23:55.199Z,2.10
2022-11-09T03:26:24.717Z,1.30
2022-11-09T03:28:52.735Z,2.07
2022-11-09T03:31:20.733Z,1.50
2022-11-09T03:33:48.664Z,1.67
2022-11-09T03:36:16.635Z,1.87
2022-11-09T03:38:44.565Z,2.23
2022-11-09T03:41:12.491Z,2.00
2022-11-09T03:43:41.757Z,1.40
2022-11-09T03:46:09.701Z,1.40
2022-11-09T03:48:37.616Z,1.23
2022-11-09T03:51:05.630Z,2.03
2022-11-09T03:53:33.546Z,1.53
2022-11-09T03:56:01.463Z,1.40
2022-11-09T03:58:29.396Z,1.37
2022-11-09T04:00:58.729Z,1.27
2022-11-09T04:03:26.744Z,1.53
2022-11-09T04:05:54.662Z,1.33
2022-11-09T04:08:22.573Z,2.43
2022-11-09T04:10:50.487Z,2.23
2022-11-09T04:13:18.713Z,2.20
2022-11-09T04:15:46.901Z,1.03
2022-11-09T04:18:18.260Z,1.53
2022-11-09T04:20:46.164Z,1.23
2022-11-09T04:23:15.105Z,1.87
2022-11-09T04:25:43.842Z,3.77
2022-11-09T04:28:13.597Z,1.77
2022-11-09T04:30:41.568Z,1.67
2022-11-09T04:33:11.175Z,2.50
2022-11-09T04:35:40.482Z,2.87
2022-11-09T04:38:15.185Z,2.30
2022-11-09T04:40:43.402Z,2.83
2022-11-09T04:43:14.033Z,2.00
2022-11-09T04:45:41.992Z,2.23
2022-11-09T04:48:12.197Z,2.07
2022-11-09T04:50:41.505Z,2.37
2022-11-09T04:53:10.992Z,2.33
2022-11-09T04:55:40.074Z,3.17
2022-11-09T04:58:08.382Z,3.63
2022-11-09T05:00:37.015Z,1.87
2022-11-09T05:03:07.321Z,2.97
2022-11-09T05:05:35.748Z,3.43
2022-11-09T05:08:06.556Z,3.43
2022-11-09T05:10:34.864Z,2.77
2022-11-09T05:13:04.747Z,2.00
2022-11-09T05:15:33.378Z,2.00
2022-11-09T05:18:01.748Z,2.30
2022-11-09T05:20:30.173Z,2.87
2022-11-09T05:23:16.405Z,2.67
2022-11-09T05:25:46.172Z,2.93
2022-11-09T05:28:14.318Z,2.67
2022-11-09T05:30:42.354Z,5.27
2022-11-09T05:33:10.332Z,2.27
2022-11-09T05:35:38.256Z,2.73
2022-11-09T05:38:06.257Z,3.70
2022-11-09T05:40:34.777Z,2.50
2022-11-09T05:43:04.056Z,3.83
2022-11-09T05:45:47.269Z,4.13
2022-11-09T05:48:16.929Z,2.17
2022-11-09T05:50:45.442Z,2.23
2022-11-09T05:53:13.732Z,3.07
2022-11-09T05:55:41.711Z,2.40
2022-11-09T05:58:11.323Z,3.13
2022-11-09T06:00:39.719Z,3.37
2022-11-09T06:03:09.101Z,3.30
2022-11-09T06:05:38.275Z,3.73
2022-11-09T06:08:07.447Z,3.93
2022-11-09T06:10:35.936Z,2.40
2022-11-09T06:13:04.156Z,3.80
2022-11-09T06:15:34.212Z,4.00
2022-11-09T06:18:02.292Z,4.20
2022-11-09T06:20:30.669Z,2.63
2022-11-09T06:23:03.035Z,1.63
2022-11-09T06:25:33.040Z,3.60
2022-11-09T06:28:01.509Z,3.63
2022-11-09T06:30:29.607Z,3.83
2022-11-09T06:33:03.597Z,3.80
2022-11-09T06:35:31.832Z,1.60
2022-11-09T06:38:00.848Z,2.17
2022-11-09T06:40:29.771Z,3.07
2022-11-09T06:42:59.554Z,3.13
2022-11-09T06:45:28.855Z,2.93
2022-11-09T06:47:57.694Z,4.10
2022-11-09T06:50:28.018Z,2.33
2022-11-09T06:52:58.033Z,2.87
2022-11-09T06:55:26.116Z,3.87
2022-11-09T06:57:54.318Z,3.87
2022-11-09T07:00:23.228Z,2.90
2022-11-09T07:02:51.225Z,2.67
2022-11-09T07:05:19.229Z,3.17
2022-11-09T07:07:48.534Z,1.67
2022-11-09T07:10:17.304Z,2.73
2022-11-09T07:12:45.470Z,2.23
2022-11-09T07:15:13.813Z,2.97
2022-11-09T07:17:42.115Z,4.87
2022-11-09T07:20:12.227Z,3.47
2022-11-09T07:22:40.315Z,2.83
2022-11-09T07:25:11.728Z,2.50
2022-11-09T07:27:39.773Z,3.03
2022-11-09T07:30:09.145Z,3.13
2022-11-09T07:33:07.568Z,3.77
2022-11-09T07:35:26.068Z,1.93
2022-11-09T07:37:54.049Z,2.20
2022-11-09T07:40:23.352Z,3.33
2022-11-09T07:42:51.245Z,3.27
2022-11-09T07:45:19.221Z,2.90
2022-11-09T07:47:47.156Z,3.77
2022-11-09T07:50:15.166Z,3.10
2022-11-09T07:52:43.064Z,2.93
2022-11-09T07:55:11.190Z,2.63
2022-11-09T07:57:40.477Z,2.83
2022-11-09T08:00:09.931Z,2.57
2022-11-09T08:02:38.263Z,3.20
2022-11-09T08:05:07.437Z,4.47
2022-11-09T08:07:35.337Z,3.33
2022-11-09T08:10:03.526Z,3.63
2022-11-09T08:12:36.760Z,4.10
2022-11-09T08:15:07.826Z,4.15
2022-11-09T08:17:35.775Z,3.47
2022-11-09T08:20:04.161Z,4.03
2022-11-09T08:22:32.090Z,3.10
2022-11-09T08:25:00.035Z,4.83
2022-11-09T08:27:34.469Z,4.17
2022-11-09T08:30:02.385Z,3.40
2022-11-09T08:32:31.700Z,4.53
2022-11-09T08:34:59.616Z,6.60
2022-11-09T08:37:27.969Z,5.10
2022-11-09T08:39:55.919Z,6.57
2022-11-09T08:42:23.891Z,4.70
2022-11-09T08:44:51.902Z,4.67
2022-11-09T08:47:19.867Z,4.10
2022-11-09T08:49:49.183Z,3.57
2022-11-09T08:52:17.829Z,3.87
2022-11-09T08:54:45.770Z,5.23
2022-11-09T08:57:13.751Z,4.37
2022-11-09T08:59:41.708Z,5.77
2022-11-09T09:02:11.233Z,4.33
2022-11-09T09:04:39.233Z,3.50
2022-11-09T09:07:09.025Z,3.60
2022-11-09T09:09:38.275Z,4.93
2022-11-09T09:12:07.406Z,3.67
2022-11-09T09:14:35.807Z,5.10
2022-11-09T09:17:03.749Z,4.13
2022-11-09T09:19:32.120Z,4.23
2022-11-09T09:22:00.527Z,4.93
2022-11-09T09:24:29.933Z,3.07
2022-11-09T09:26:57.897Z,4.50
2022-11-09T09:29:25.875Z,4.83
2022-11-09T09:31:53.831Z,4.82
2022-11-09T09:34:21.776Z,6.22
2022-11-09T09:36:49.778Z,3.47
2022-11-09T09:39:17.743Z,3.70
2022-11-09T09:41:53.990Z,5.55
2022-11-09T09:44:28.894Z,4.22
2022-11-09T09:47:06.076Z,3.60
2022-11-09T09:49:38.320Z,4.38
2022-11-09T09:52:14.337Z,5.88
2022-11-09T09:54:50.176Z,3.10
2022-11-09T09:57:23.883Z,6.75
2022-11-09T09:59:54.147Z,4.88
2022-11-09T10:02:26.843Z,4.93
2022-11-09T10:04:57.618Z,3.90
2022-11-09T10:07:30.528Z,4.95
2022-11-09T10:10:18.703Z,4.68
2022-11-09T10:12:59.721Z,3.67
2022-11-09T10:15:34.858Z,5.22
2022-11-09T10:18:19.623Z,5.22
2022-11-09T10:21:08.698Z,4.85
2022-11-09T10:23:45.176Z,3.45
2022-11-09T10:26:20.169Z,4.55
2022-11-09T10:29:14.990Z,3.83
2022-11-09T10:31:43.802Z,3.35
2022-11-09T10:34:19.306Z,2.83
2022-11-09T10:36:54.458Z,2.58
2022-11-09T10:39:26.038Z,4.82
2022-11-09T10:41:54.014Z,3.25
2022-11-09T10:44:23.821Z,5.22
2022-11-09T10:47:07.365Z,3.60
2022-11-09T10:49:35.975Z,3.03
2022-11-09T10:52:05.026Z,4.03
2022-11-09T10:54:35.491Z,3.03
2022-11-09T10:57:12.725Z,3.53
2022-11-09T10:59:47.077Z,3.13
2022-11-09T11:02:42.527Z,4.75
2022-11-09T11:05:32.660Z,3.63
2022-11-09T11:08:22.021Z,3.80
2022-11-09T11:10:58.475Z,3.92
2022-11-09T11:13:34.809Z,3.60
2022-11-09T11:16:25.205Z,2.40
2022-11-09T11:18:53.196Z,4.03
2022-11-09T11:21:22.788Z,2.10
2022-11-09T11:24:13.024Z,2.05
2022-11-09T11:26:47.771Z,4.35
2022-11-09T11:29:30.600Z,2.60
2022-11-09T11:31:59.926Z,4.03
2022-11-09T11:34:58.103Z,3.13
2022-11-09T11:37:31.782Z,4.57
2022-11-09T11:40:03.205Z,3.35
2022-11-09T11:42:52.877Z,3.85
2022-11-09T11:45:41.652Z,3.92
2022-11-09T11:48:42.956Z,2.50
2022-11-09T11:51:18.261Z,3.72
2022-11-09T11:53:59.317Z,2.83
2022-11-09T11:56:32.738Z,1.95
2022-11-09T11:59:17.106Z,2.97
2022-11-09T12:01:59.792Z,3.50
2022-11-09T12:04:43.006Z,2.40
2022-11-09T12:07:22.563Z,2.63
2022-11-09T12:10:04.892Z,4.10
2022-11-09T12:12:43.636Z,2.53
2022-11-09T12:15:31.383Z,3.78
2022-11-09T12:18:11.111Z,3.67
2022-11-09T12:20:44.612Z,3.60
2022-11-09T12:23:35.061Z,2.95
2022-11-09T12:26:17.927Z,3.05
2022-11-09T12:29:04.166Z,3.70
2022-11-09T12:31:41.243Z,2.15
2022-11-09T12:34:18.791Z,3.90
2022-11-09T12:36:55.732Z,3.55
2022-11-09T12:39:31.496Z,3.92
2022-11-09T12:42:05.231Z,3.22
2022-11-09T12:44:36.583Z,3.38
2022-11-09T12:47:11.443Z,2.25
2022-11-09T12:49:41.804Z,4.13
2022-11-09T12:52:14.053Z,2.03
2022-11-09T12:54:47.709Z,3.00
2022-11-09T12:57:22.572Z,2.35
2022-11-09T12:59:53.339Z,2.53
2022-11-09T13:02:28.611Z,3.25
2022-11-09T13:04:59.195Z,2.67
2022-11-09T13:07:49.849Z,2.05
2022-11-09T13:10:38.391Z,2.50
2022-11-09T13:13:22.686Z,3.70
2022-11-09T13:16:10.379Z,2.70
2022-11-09T13:18:52.705Z,3.40
2022-11-09T13:21:40.460Z,2.33
2022-11-09T13:24:54.397Z,2.72
2022-11-09T13:27:42.250Z,2.47
2022-11-09T13:30:41.662Z,2.20
2022-11-09T13:33:28.597Z,2.67
2022-11-09T13:36:15.003Z,3.08
2022-11-09T13:38:43.253Z,2.78
2022-11-09T13:41:41.761Z,2.42
2022-11-09T13:44:19.248Z,2.55
2022-11-09T13:46:49.845Z,4.18
2022-11-09T13:49:42.236Z,2.15
2022-11-09T13:52:49.327Z,3.83
2022-11-09T13:55:31.778Z,4.47
2022-11-09T13:58:04.772Z,3.45
2022-11-09T14:00:34.387Z,2.38
2022-11-09T14:03:06.742Z,2.60
2022-11-09T14:05:37.745Z,4.15
2022-11-09T14:08:06.615Z,3.60
2022-11-09T14:10:52.555Z,2.20
2022-11-09T14:13:41.857Z,2.13
2022-11-09T14:16:22.478Z,2.38
2022-11-09T14:19:08.424Z,2.83
2022-11-09T14:21:45.194Z,2.63
2022-11-09T14:24:19.165Z,2.67
2022-11-09T14:29:54.317Z,2.25
2022-11-09T14:32:30.261Z,1.75
2022-11-09T14:35:28.461Z,2.63
2022-11-09T14:37:58.758Z,3.47
2022-11-09T14:40:28.572Z,3.05
2022-11-09T14:43:00.891Z,2.47
2022-11-09T14:45:29.322Z,2.67
2022-11-09T14:48:00.837Z,2.60
2022-11-09T14:50:32.270Z,2.00
2022-11-09T14:53:02.322Z,1.35
2022-11-09T14:55:31.734Z,2.75
2022-11-09T14:58:00.104Z,3.25
2022-11-09T15:00:33.101Z,3.08
2022-11-09T15:03:23.188Z,2.53
2022-11-09T15:05:52.437Z,1.90
2022-11-09T15:08:23.712Z,1.30
2022-11-09T15:10:53.947Z,2.13
2022-11-09T15:13:30.837Z,3.47
2022-11-09T15:15:59.460Z,2.93
2022-11-09T15:18:33.911Z,3.77
2022-11-09T15:21:13.182Z,1.88
2022-11-09T15:23:42.794Z,2.60
2022-11-09T15:26:27.794Z,3.78
2022-11-09T15:28:56.062Z,2.65
2022-11-09T15:31:25.897Z,2.27
2022-11-09T15:33:56.848Z,2.47
2022-11-09T15:36:29.608Z,3.53
2022-11-09T15:39:04.543Z,2.53
2022-11-09T15:41:32.826Z,3.85
2022-11-09T15:44:00.768Z,3.43
2022-11-09T15:46:34.338Z,3.23
2022-11-09T15:49:15.144Z,3.85
2022-11-09T15:51:43.327Z,2.97
2022-11-09T15:54:11.516Z,2.20
2022-11-09T15:56:39.786Z,2.40
2022-11-09T15:59:08.388Z,3.40
2022-11-09T16:01:36.302Z,3.37
2022-11-09T16:04:05.654Z,2.90
2022-11-09T16:06:33.624Z,2.17
2022-11-09T16:09:01.604Z,1.40
2022-11-09T16:11:29.540Z,2.03
2022-11-09T16:13:57.470Z,3.43
2022-11-09T16:16:25.405Z,3.53
2022-11-09T16:18:53.343Z,2.90
2022-11-09T16:21:22.627Z,3.50
2022-11-09T16:23:54.385Z,4.03
2022-11-09T16:26:26.093Z,4.60
2022-11-09T16:28:55.884Z,3.17
2022-11-09T16:31:50.362Z,4.40
2022-11-09T16:34:11.708Z,4.57
2022-11-09T16:36:47.976Z,2.80
2022-11-09T16:39:18.110Z,3.83
2022-11-09T16:41:48.897Z,3.60
2022-11-09T16:44:21.353Z,3.77
2022-11-09T16:46:49.627Z,3.60
2022-11-09T16:49:17.605Z,4.00
2022-11-09T16:51:46.893Z,4.47
2022-11-09T16:54:14.833Z,3.90
2022-11-09T16:56:42.759Z,4.13
2022-11-09T16:59:10.876Z,3.27
2022-11-09T17:01:38.859Z,2.87
2022-11-09T17:04:07.475Z,4.13
2022-11-09T17:06:35.898Z,2.73
2022-11-09T17:09:05.342Z,1.93
2022-11-09T17:11:33.611Z,2.43
2022-11-09T17:14:02.046Z,2.70
2022-11-09T17:16:30.769Z,2.17
2022-11-09T17:18:59.169Z,2.60
2022-11-09T17:21:28.501Z,2.97
2022-11-09T17:23:57.523Z,2.77
2022-11-09T17:26:27.252Z,2.57
2022-11-09T17:28:55.217Z,3.20
2022-11-09T17:31:26.616Z,3.60
2022-11-09T17:34:00.904Z,4.33
2022-11-09T17:36:49.275Z,2.40
2022-11-09T17:39:17.396Z,2.80
2022-11-09T17:41:46.706Z,2.50
2022-11-09T17:44:14.653Z,5.50
2022-11-09T17:46:42.683Z,1.40
2022-11-09T17:49:10.758Z,2.73
2022-11-09T17:51:39.157Z,4.73
2022-11-09T17:54:07.303Z,3.13
2022-11-09T17:56:35.253Z,2.07
2022-11-09T17:59:05.260Z,4.37
2022-11-09T18:01:39.494Z,3.40
2022-11-09T18:04:10.053Z,3.53
2022-11-09T18:06:38.706Z,1.70
2022-11-09T18:11:54.889Z,2.07
2022-11-09T18:14:24.191Z,3.17
2022-11-09T18:16:52.097Z,3.27
2022-11-09T18:19:20.019Z,4.57
2022-11-09T18:21:48.219Z,2.97
2022-11-09T18:24:16.322Z,2.90
2022-11-09T18:26:44.227Z,3.53
2022-11-09T18:29:12.154Z,2.23
2022-11-09T18:31:41.437Z,2.83
2022-11-09T18:34:09.398Z,3.07
2022-11-09T18:36:37.330Z,3.77
2022-11-09T18:39:05.508Z,2.20
2022-11-09T18:41:33.788Z,3.10
2022-11-09T18:44:02.689Z,4.90
2022-11-09T18:46:33.231Z,2.10
2022-11-09T18:49:02.637Z,4.30
2022-11-09T18:51:30.548Z,3.87
2022-11-09T18:53:58.503Z,2.93
2022-11-09T18:56:26.865Z,3.83
2022-11-09T18:58:56.644Z,4.97
2022-11-09T19:01:27.272Z,4.93
2022-11-09T19:03:59.339Z,4.47
2022-11-09T19:06:29.043Z,4.60
2022-11-09T19:09:14.502Z,4.40
2022-11-09T19:11:42.493Z,3.13
2022-11-09T19:14:11.035Z,2.93
2022-11-09T19:16:39.110Z,2.50
2022-11-09T19:19:07.017Z,3.03
2022-11-09T19:21:42.005Z,2.70
2022-11-09T19:24:13.445Z,2.93
2022-11-09T19:26:41.623Z,1.63
2022-11-09T19:29:10.684Z,1.70
2022-11-09T19:31:41.622Z,2.20
2022-11-09T19:34:09.670Z,2.60
2022-11-09T19:36:39.040Z,1.23
2022-11-09T19:39:07.140Z,2.27
2022-11-09T19:41:35.060Z,2.63
2022-11-09T19:44:03.569Z,2.00
2022-11-09T19:46:33.866Z,2.23
2022-11-09T19:49:03.115Z,2.13
2022-11-09T19:51:31.193Z,1.73
2022-11-09T19:54:01.500Z,1.77
2022-11-09T19:56:31.330Z,1.47
2022-11-09T19:59:00.889Z,2.17
2022-11-09T20:01:30.382Z,2.17
2022-11-09T20:04:00.117Z,0.43
2022-11-09T20:06:28.824Z,1.93
2022-11-09T20:08:57.325Z,1.77
2022-11-09T20:11:50.962Z,2.63
2022-11-09T20:14:20.604Z,1.67
2022-11-09T20:16:49.232Z,0.70
2022-11-09T20:19:17.464Z,1.60
2022-11-09T20:21:45.758Z,2.67
2022-11-09T20:24:14.497Z,1.43
2022-11-09T20:26:44.117Z,2.63
2022-11-09T20:29:12.237Z,2.27
2022-11-09T20:31:40.584Z,1.50
2022-11-09T20:34:08.639Z,1.23
2022-11-09T20:36:36.568Z,1.97
2022-11-09T20:39:04.831Z,2.27
2022-11-09T20:41:33.484Z,2.00
2022-11-09T20:44:02.843Z,1.43
2022-11-09T20:46:35.814Z,1.67
2022-11-09T20:49:05.257Z,1.63
2022-11-09T20:51:33.327Z,1.43
2022-11-09T20:54:06.924Z,2.60
2022-11-09T20:56:37.034Z,2.67
2022-11-09T20:59:06.673Z,1.40
2022-11-09T21:01:34.771Z,0.60
2022-11-09T21:04:03.080Z,1.77
2022-11-09T21:06:31.283Z,1.20
2022-11-09T21:09:01.022Z,1.47
2022-11-09T21:11:35.773Z,2.37
2022-11-09T21:14:04.489Z,1.00
2022-11-09T21:16:33.925Z,2.13
2022-11-09T21:19:01.840Z,1.77
2022-11-09T21:21:35.012Z,2.03
2022-11-09T21:24:22.381Z,1.30
2022-11-09T21:27:07.932Z,2.17
2022-11-09T21:29:53.957Z,1.43
2022-11-09T21:32:24.784Z,1.83
2022-11-09T21:34:53.163Z,1.47
2022-11-09T21:37:21.068Z,2.37
2022-11-09T21:39:48.975Z,2.37
2022-11-09T21:42:16.941Z,1.47
2022-11-09T21:44:44.996Z,0.80
2022-11-09T21:47:13.278Z,2.40
2022-11-09T21:49:42.635Z,2.00
2022-11-09T21:52:10.562Z,0.90
2022-11-09T21:54:39.011Z,1.20
2022-11-09T21:57:06.945Z,1.00
2022-11-09T21:59:34.890Z,1.23
2022-11-09T22:02:02.799Z,1.77
2022-11-09T22:04:30.797Z,1.37
2022-11-09T22:07:00.120Z,1.17
2022-11-09T22:09:35.832Z,1.00
2022-11-09T22:12:30.593Z,1.47
2022-11-09T22:15:16.129Z,1.07
2022-11-09T22:17:44.254Z,1.83
2022-11-09T22:20:29.971Z,1.17
2022-11-09T22:22:59.257Z,1.30
2022-11-09T22:25:27.241Z,0.70
2022-11-09T22:27:55.149Z,1.00
2022-11-09T22:30:23.072Z,1.57
2022-11-09T22:32:51.031Z,1.40
2022-11-09T22:35:19.131Z,2.90
2022-11-09T22:37:47.059Z,1.07
2022-11-09T22:40:18.329Z,1.40
2022-11-09T22:42:46.264Z,2.10
2022-11-09T22:45:14.225Z,1.47
2022-11-09T22:47:42.145Z,1.70
2022-11-09T22:50:10.285Z,0.83
2022-11-09T22:52:38.218Z,2.23
2022-11-09T22:55:06.903Z,1.37
2022-11-09T22:57:37.985Z,1.47
2022-11-09T23:00:07.426Z,1.70
2022-11-09T23:02:35.408Z,2.13
2022-11-09T23:05:03.321Z,0.90
2022-11-09T23:07:31.238Z,1.37
2022-11-09T23:09:59.224Z,0.30
2022-11-09T23:12:27.145Z,1.03
2022-11-09T23:15:05.088Z,0.87
2022-11-09T23:17:51.057Z,1.60
2022-11-09T23:20:19.481Z,2.03
2022-11-09T23:22:47.740Z,0.60
2022-11-09T23:25:33.448Z,2.57
2022-11-09T23:28:01.425Z,1.23
2022-11-09T23:30:30.741Z,2.07
2022-11-09T23:33:01.537Z,0.73
2022-11-09T23:35:29.654Z,1.00
2022-11-09T23:38:00.726Z,1.23
2022-11-09T23:40:29.498Z,1.03
2022-11-09T23:43:01.521Z,0.80
2022-11-09T23:45:30.901Z,1.63
2022-11-09T23:47:58.826Z,1.00
2022-11-09T23:50:26.820Z,1.30
2022-11-09T23:52:57.241Z,2.20
2022-11-09T23:55:25.292Z,0.80
2022-11-09T23:57:53.213Z,0.80
